KCBF/CBF METAR and TAF weather

Enter ICAO airport designator
Station Type Date Time Source
KCBF METAR 2019/12/14 19:35 UTC NOAA

KCBF 141935Z AUTO 30011KT 10SM OVC017 M07/M09 A2996 RMK AO2


Station Type Date Time Source
KCBF Decoded METAR 2019/12/14 19:35 UTC NOAA

Council Bluffs, IA, United States (KCBF) 41-16N 095-46W
Dec 14, 2019 - 02:35 PM EST / 2019.12.14 1935 UTC
Wind: from the WNW (300 degrees) at 13 MPH (11 KT):0
Visibility: 10 mile(s):0
Sky conditions: overcast
Temperature: 19 F (-7 C)
Windchill: 6 F (-14 C):1
Dew Point: 15 F (-9 C)
Relative Humidity: 85%
Pressure (altimeter): 29.96 in. Hg (1014 hPa)
ob: KCBF 141935Z AUTO 30011KT 10SM OVC017 M07/M09 A2996 RMK AO2
cycle: 19

Station Type Date Time Source
KCBF TAF UTC NOAA

Error!

Example: see airport list